Time;durP1;ratioP1;P1;durP2;ratioP2;P2;SDS_P1;SDS_P2;PMS_P1;PMS_P2;Temp;Humidity;BMP_temperature;BMP_pressure;BME280_temperature;BME280_humidity;BME280_pressure;Samples;Min_cycle;Max_cycle;Signal;HPM_P1;HPM_P2
2023/06/21 00:00:13;;;;;;;4.50;2.10;;;;;;;19.60;100.00;100438.22;676400;29;1723;-58
2023/06/21 00:00:35;;;;;;;3.63;2.10;;;;;;;19.56;100.00;100440.13;675869;29;3037;-58
2023/06/21 00:00:56;;;;;;;3.80;2.08;;;;;;;19.55;100.00;100444.59;673999;29;4627;-58
2023/06/21 00:01:17;;;;;;;4.40;2.35;;;;;;;19.55;100.00;100439.28;668788;29;1673;-58
2023/06/21 00:01:41;;;;;;;3.58;2.00;;;;;;;19.53;100.00;100442.94;671517;29;851;-58
2023/06/21 00:02:04;;;;;;;4.35;2.17;;;;;;;19.52;100.00;100442.09;672070;29;1414;-58
2023/06/21 00:02:24;;;;;;;3.72;2.08;;;;;;;19.51;100.00;100437.69;671699;29;1437;-58
2023/06/21 00:02:45;;;;;;;3.42;2.13;;;;;;;19.50;100.00;100443.06;675919;29;1343;-58
2023/06/21 00:03:06;;;;;;;4.38;2.20;;;;;;;19.47;100.00;100440.56;677115;29;1160;-58
2023/06/21 00:03:27;;;;;;;4.18;2.22;;;;;;;19.44;100.00;100446.88;675737;29;1500;-58
2023/06/21 00:03:48;;;;;;;3.90;2.03;;;;;;;19.43;100.00;100441.63;675579;29;4377;-58
2023/06/21 00:04:09;;;;;;;4.40;2.30;;;;;;;19.42;100.00;100442.56;672985;29;3878;-59
2023/06/21 00:04:30;;;;;;;4.18;2.20;;;;;;;19.41;100.00;100441.69;672055;29;2250;-57
2023/06/21 00:04:55;;;;;;;4.15;2.13;;;;;;;19.42;100.00;100442.56;675022;29;1200;-58
2023/06/21 00:05:16;;;;;;;4.03;2.15;;;;;;;19.39;100.00;100449.72;673437;29;1495;-58
2023/06/21 00:05:40;;;;;;;3.65;2.10;;;;;;;19.37;100.00;100450.69;676966;29;866;-58
2023/06/21 00:06:01;;;;;;;3.60;2.10;;;;;;;19.37;100.00;100443.63;673924;29;1031;-58
2023/06/21 00:06:22;;;;;;;4.05;2.40;;;;;;;19.39;100.00;100443.56;674735;29;1554;-57
2023/06/21 00:06:49;;;;;;;4.00;2.30;;;;;;;19.38;100.00;100452.44;676822;29;4386;-58
2023/06/21 00:07:09;;;;;;;3.50;2.03;;;;;;;19.38;100.00;100450.66;677139;29;1237;-58
2023/06/21 00:07:30;;;;;;;4.15;2.30;;;;;;;19.38;100.00;100453.31;673471;29;1131;-58
2023/06/21 00:07:54;;;;;;;4.03;1.97;;;;;;;19.38;100.00;100448.00;676193;29;957;-58
2023/06/21 00:08:14;;;;;;;3.75;1.98;;;;;;;19.40;100.00;100443.47;676236;29;1511;-58
2023/06/21 00:08:34;;;;;;;4.57;2.27;;;;;;;19.39;100.00;100449.72;677107;29;1055;-58
2023/06/21 00:08:58;;;;;;;3.92;2.17;;;;;;;19.37;100.00;100442.75;677603;29;1224;-57
2023/06/21 00:09:18;;;;;;;3.72;2.13;;;;;;;19.35;100.00;100450.78;675273;29;1559;-58
2023/06/21 00:09:39;;;;;;;3.67;2.00;;;;;;;19.35;100.00;100447.28;677159;29;909;-58
2023/06/21 00:10:01;;;;;;;3.43;1.80;;;;;;;19.34;100.00;100450.84;677077;29;4410;-58
2023/06/21 00:10:24;;;;;;;3.70;2.10;;;;;;;19.29;100.00;100451.06;675967;29;1096;-59
2023/06/21 00:10:45;;;;;;;3.60;2.05;;;;;;;19.28;100.00;100451.13;676956;29;1012;-57
2023/06/21 00:11:05;;;;;;;3.90;2.10;;;;;;;19.29;100.00;100447.56;677679;29;851;-58
2023/06/21 00:11:26;;;;;;;4.30;2.20;;;;;;;19.28;100.00;100451.97;675609;29;1613;-58
2023/06/21 00:11:46;;;;;;;3.97;2.08;;;;;;;19.25;100.00;100445.97;673047;29;875;-58
2023/06/21 00:12:07;;;;;;;4.40;2.30;;;;;;;19.22;100.00;100444.31;673996;29;1048;-58
2023/06/21 00:12:28;;;;;;;4.20;2.45;;;;;;;19.21;100.00;100455.84;674050;29;1473;-58
2023/06/21 00:12:49;;;;;;;4.20;2.35;;;;;;;19.18;100.00;100443.59;676093;29;4399;-58
2023/06/21 00:13:10;;;;;;;3.83;2.17;;;;;;;19.18;100.00;100451.53;676072;29;1382;-57
2023/06/21 00:13:30;;;;;;;3.53;2.13;;;;;;;19.17;100.00;100444.50;674544;29;1622;-58
2023/06/21 00:13:54;;;;;;;3.80;2.20;;;;;;;19.14;100.00;100444.66;677034;29;1468;-58
2023/06/21 00:14:15;;;;;;;3.58;2.20;;;;;;;19.14;100.00;100438.50;676523;29;1500;-58
2023/06/21 00:14:35;;;;;;;3.43;2.10;;;;;;;19.14;100.00;100441.16;676964;29;1194;-58
2023/06/21 00:14:55;;;;;;;3.95;2.13;;;;;;;19.12;100.00;100446.50;677606;29;948;-58
2023/06/21 00:15:16;;;;;;;4.27;2.40;;;;;;;19.13;100.00;100444.72;675841;29;1476;-58
2023/06/21 00:15:36;;;;;;;4.22;2.40;;;;;;;19.15;100.00;100446.38;677503;29;801;-57
2023/06/21 00:15:57;;;;;;;4.10;2.27;;;;;;;19.16;100.00;100444.56;676924;29;4612;-58
2023/06/21 00:16:17;;;;;;;4.00;2.15;;;;;;;19.16;100.00;100441.91;675813;29;3312;-58
2023/06/21 00:16:38;;;;;;;3.63;2.10;;;;;;;19.17;100.00;100443.66;677356;29;874;-58
2023/06/21 00:16:58;;;;;;;3.80;2.20;;;;;;;19.18;100.00;100448.03;677630;29;1088;-58
2023/06/21 00:17:19;;;;;;;3.37;2.17;;;;;;;19.18;100.00;100450.69;676273;29;1558;-58
2023/06/21 00:17:39;;;;;;;3.70;2.28;;;;;;;19.18;100.00;100440.09;677663;29;960;-58
2023/06/21 00:17:59;;;;;;;3.70;2.20;;;;;;;19.17;100.00;100449.81;676960;29;1173;-58
2023/06/21 00:18:20;;;;;;;3.73;2.20;;;;;;;19.13;100.00;100442.06;675626;29;1559;-58
2023/06/21 00:18:40;;;;;;;4.03;2.22;;;;;;;19.11;100.00;100441.28;676850;29;4562;-57
2023/06/21 00:19:01;;;;;;;4.07;2.30;;;;;;;19.09;100.00;100441.31;677254;29;909;-58
2023/06/21 00:19:21;;;;;;;3.83;2.13;;;;;;;19.13;100.00;100444.72;676086;29;909;-58
2023/06/21 00:19:42;;;;;;;4.00;2.30;;;;;;;19.16;100.00;100447.22;674361;29;906;-58
2023/06/21 00:20:03;;;;;;;3.58;2.10;;;;;;;19.18;100.00;100448.03;671777;29;870;-58
2023/06/21 00:20:23;;;;;;;4.40;2.38;;;;;;;19.16;100.00;100447.22;670396;29;1592;-58
2023/06/21 00:20:44;;;;;;;3.87;2.30;;;;;;;19.16;100.00;100444.56;672252;29;895;-58
2023/06/21 00:21:04;;;;;;;3.58;2.10;;;;;;;19.15;100.00;100448.13;671989;29;1982;-58
2023/06/21 00:21:24;;;;;;;3.93;2.30;;;;;;;19.15;100.00;100451.66;674157;29;1594;-58
2023/06/21 00:21:45;;;;;;;3.80;2.20;;;;;;;19.17;100.00;100443.66;675767;29;4496;-58
2023/06/21 00:22:05;;;;;;;3.88;2.15;;;;;;;19.17;100.00;100447.16;677855;29;1009;-58
2023/06/21 00:22:28;;;;;;;3.70;2.23;;;;;;;19.16;100.00;100445.44;676481;29;1457;-58
2023/06/21 00:22:55;;;;;;;4.15;2.38;;;;;;;19.16;100.00;100449.88;677468;29;1217;-58
2023/06/21 00:23:18;;;;;;;4.30;2.30;;;;;;;19.16;100.00;100447.22;675108;29;2125;-58
2023/06/21 00:23:39;;;;;;;4.20;2.20;;;;;;;19.18;100.00;100445.38;676469;29;870;-58
2023/06/21 00:24:02;;;;;;;4.15;2.20;;;;;;;19.19;100.00;100445.31;676981;29;1239;-59
2023/06/21 00:24:23;;;;;;;4.20;2.28;;;;;;;19.20;100.00;100446.16;673311;29;1588;-58
2023/06/21 00:24:43;;;;;;;3.97;2.13;;;;;;;19.17;100.00;100447.16;671631;29;4600;-58
2023/06/21 00:25:04;;;;;;;3.30;2.00;;;;;;;19.15;100.00;100450.78;670296;29;926;-58
2023/06/21 00:25:25;;;;;;;5.97;2.70;;;;;;;19.15;100.00;100445.50;671013;29;1644;-58
2023/06/21 00:25:45;;;;;;;5.35;2.50;;;;;;;19.13;100.00;100448.22;671792;29;879;-58
2023/06/21 00:26:05;;;;;;;5.93;2.20;;;;;;;19.11;100.00;100444.78;671997;29;1273;-58
2023/06/21 00:26:26;;;;;;;4.80;2.10;;;;;;;19.13;100.00;100452.66;673431;29;1565;-58
2023/06/21 00:26:47;;;;;;;3.75;2.00;;;;;;;19.11;100.00;100444.78;675229;29;1338;-58
2023/06/21 00:27:08;;;;;;;3.90;2.05;;;;;;;19.12;100.00;100449.16;674812;29;1473;-58
2023/06/21 00:27:29;;;;;;;3.97;2.27;;;;;;;19.12;100.00;100448.28;673094;29;1744;-58
2023/06/21 00:27:49;;;;;;;3.88;2.10;;;;;;;19.09;100.00;100449.28;671882;29;4612;-56
2023/06/21 00:28:11;;;;;;;4.20;2.20;;;;;;;19.06;100.00;100438.81;672405;29;2725;-58
2023/06/21 00:28:34;;;;;;;4.27;2.30;;;;;;;19.04;100.00;100449.50;672909;29;1171;-58
2023/06/21 00:28:55;;;;;;;3.60;2.22;;;;;;;19.03;100.00;100445.09;674741;29;1283;-58
2023/06/21 00:29:15;;;;;;;3.70;2.10;;;;;;;19.02;100.00;100442.53;672797;29;1597;-58
2023/06/21 00:29:35;;;;;;;4.10;2.30;;;;;;;19.00;100.00;100447.06;672130;29;810;-58
2023/06/21 00:29:56;;;;;;;3.85;2.13;;;;;;;18.99;100.00;100446.16;672782;29;803;-58
2023/06/21 00:30:16;;;;;;;3.77;2.10;;;;;;;18.98;100.00;100446.25;674109;29;1536;-58
2023/06/21 00:30:36;;;;;;;3.87;2.13;;;;;;;18.99;100.00;100440.03;674239;29;1313;-58
2023/06/21 00:30:57;;;;;;;4.18;2.53;;;;;;;19.00;100.00;100439.09;674269;29;4637;-58
2023/06/21 00:31:17;;;;;;;4.20;2.40;;;;;;;19.01;100.00;100446.97;673850;29;1514;-58
2023/06/21 00:31:37;;;;;;;3.83;2.10;;;;;;;19.03;100.00;100442.47;671558;29;1239;-58
2023/06/21 00:31:59;;;;;;;4.13;2.10;;;;;;;19.02;100.00;100447.81;672314;29;937;-58
2023/06/21 00:32:20;;;;;;;3.72;2.20;;;;;;;19.02;100.00;100443.41;669977;29;1494;-58
2023/06/21 00:32:41;;;;;;;3.75;2.30;;;;;;;19.03;100.00;100449.56;672085;29;949;-58
2023/06/21 00:33:02;;;;;;;3.55;2.20;;;;;;;19.03;100.00;100453.06;675491;29;901;-58
2023/06/21 00:33:23;;;;;;;4.10;2.03;;;;;;;19.03;100.00;100447.75;673727;29;1523;-58
2023/06/21 00:33:43;;;;;;;3.80;2.20;;;;;;;19.03;100.00;100446.91;673994;29;4382;-58
2023/06/21 00:34:04;;;;;;;4.50;2.42;;;;;;;19.01;100.00;100449.63;674745;29;1317;-58
2023/06/21 00:34:25;;;;;;;4.13;2.33;;;;;;;19.02;100.00;100451.34;676405;29;1120;-58
2023/06/21 00:34:47;;;;;;;3.95;2.30;;;;;;;19.01;100.00;100443.44;676575;29;842;-58
2023/06/21 00:35:07;;;;;;;4.10;2.20;;;;;;;18.98;100.00;100449.75;675162;29;965;-58
2023/06/21 00:35:28;;;;;;;3.95;2.10;;;;;;;18.99;100.00;100446.16;676265;29;1526;-58
2023/06/21 00:35:49;;;;;;;4.00;2.30;;;;;;;18.98;100.00;100447.13;677124;29;998;-58
2023/06/21 00:36:11;;;;;;;3.88;2.10;;;;;;;18.95;100.00;100451.66;674020;29;1016;-58
2023/06/21 00:36:31;;;;;;;4.03;2.20;;;;;;;18.94;100.00;100449.94;674068;29;1215;-58
2023/06/21 00:36:52;;;;;;;4.10;2.30;;;;;;;18.92;100.00;100450.00;671091;29;4480;-58
2023/06/21 00:37:13;;;;;;;4.28;2.40;;;;;;;18.93;100.00;100451.75;671097;29;1497;-58
2023/06/21 00:37:33;;;;;;;3.70;2.20;;;;;;;18.92;100.00;100443.88;671602;29;1142;-58
2023/06/21 00:37:55;;;;;;;4.00;2.30;;;;;;;18.90;100.00;100451.88;669955;29;788;-58
2023/06/21 00:38:15;;;;;;;4.20;2.20;;;;;;;18.89;100.00;100452.81;671142;29;1494;-58
2023/06/21 00:38:36;;;;;;;4.47;2.20;;;;;;;18.90;100.00;100443.94;669881;29;1455;-58
2023/06/21 00:38:57;;;;;;;4.30;2.30;;;;;;;18.92;100.00;100449.16;668772;29;5125;-58
2023/06/21 00:39:18;;;;;;;4.60;2.40;;;;;;;18.91;100.00;100450.09;668602;29;1596;-58
2023/06/21 00:39:38;;;;;;;4.88;2.30;;;;;;;18.90;100.00;100451.88;671675;29;1236;-58
2023/06/21 00:39:59;;;;;;;4.10;2.20;;;;;;;18.94;100.00;100457.88;672775;29;4359;-58
2023/06/21 00:40:22;;;;;;;3.95;2.10;;;;;;;18.93;100.00;100451.75;670634;29;1536;-58
2023/06/21 00:40:43;;;;;;;4.00;2.40;;;;;;;18.92;100.00;100452.66;671420;29;1273;-58
2023/06/21 00:41:04;;;;;;;4.37;2.13;;;;;;;18.96;100.00;100458.69;671194;29;1963;-57
2023/06/21 00:41:25;;;;;;;3.45;1.95;;;;;;;18.98;100.00;100454.19;671408;29;1597;-58
2023/06/21 00:41:47;;;;;;;3.60;2.20;;;;;;;18.98;100.00;100454.19;669529;29;1659;-58
2023/06/21 00:42:09;;;;;;;3.70;2.10;;;;;;;18.99;100.00;100456.75;670091;29;1269;-58
2023/06/21 00:42:30;;;;;;;4.47;2.30;;;;;;;18.99;100.00;100456.75;668685;29;1609;-58
2023/06/21 00:42:53;;;;;;;5.18;2.25;;;;;;;19.00;100.00;100458.50;669988;29;4682;-58
2023/06/21 00:43:16;;;;;;;4.60;2.50;;;;;;;19.00;100.00;100455.84;669571;29;1889;-58
2023/06/21 00:43:37;;;;;;;3.55;2.17;;;;;;;19.01;100.00;100457.56;669203;29;1360;-58
2023/06/21 00:43:59;;;;;;;4.13;2.30;;;;;;;19.00;100.00;100453.19;670814;29;1562;-58
2023/06/21 00:44:20;;;;;;;4.67;2.30;;;;;;;18.99;100.00;100451.47;669845;29;1470;-58
2023/06/21 00:44:40;;;;;;;4.15;2.17;;;;;;;18.98;100.00;100454.19;669171;29;870;-58
2023/06/21 00:45:09;;;;;;;3.97;2.10;;;;;;;18.98;100.00;100454.19;673112;29;836;-58
2023/06/21 00:45:39;;;;;;;4.43;2.42;;;;;;;18.93;100.00;100451.75;673118;29;1514;-58
2023/06/21 00:46:00;;;;;;;4.20;2.30;;;;;;;18.99;100.00;100459.41;670273;29;4486;-58
2023/06/21 00:46:21;;;;;;;3.87;2.40;;;;;;;19.10;100.00;100458.09;669392;29;1576;-58
2023/06/21 00:46:41;;;;;;;4.32;2.20;;;;;;;19.12;100.00;100454.47;670000;29;1245;-57
2023/06/21 00:47:02;;;;;;;4.55;2.60;;;;;;;19.08;100.00;100454.66;669905;29;795;-58
2023/06/21 00:47:23;;;;;;;4.27;2.40;;;;;;;19.01;100.00;100456.69;671544;29;1951;-58
2023/06/21 00:47:45;;;;;;;4.25;2.22;;;;;;;18.95;100.00;100457.81;675110;29;926;-58
2023/06/21 00:48:06;;;;;;;3.72;2.05;;;;;;;18.97;100.00;100463.94;677620;29;945;-58
2023/06/21 00:48:29;;;;;;;3.50;2.00;;;;;;;18.95;100.00;100468.41;676451;29;1511;-58
2023/06/21 00:48:55;;;;;;;3.75;2.10;;;;;;;18.89;100.00;100466.91;676463;29;4364;-58
2023/06/21 00:49:15;;;;;;;4.47;2.05;;;;;;;18.88;100.00;100469.59;672123;29;1739;-58
2023/06/21 00:49:38;;;;;;;4.43;2.20;;;;;;;18.87;100.00;100466.13;673197;29;781;-58
2023/06/21 00:49:58;;;;;;;3.75;2.17;;;;;;;18.86;100.00;100460.84;673989;29;1304;-58
2023/06/21 00:50:19;;;;;;;4.38;2.35;;;;;;;18.81;100.00;100468.97;669697;29;1545;-58
2023/06/21 00:50:40;;;;;;;4.17;2.37;;;;;;;18.78;100.00;100468.25;670269;29;1057;-58
2023/06/21 00:51:01;;;;;;;4.07;2.40;;;;;;;18.79;100.00;100468.19;668207;29;1430;-58
2023/06/21 00:51:22;;;;;;;5.38;2.25;;;;;;;18.78;100.00;100468.25;667174;29;1486;-58
2023/06/21 00:51:44;;;;;;;5.20;2.30;;;;;;;18.78;100.00;100469.09;668114;29;4729;-57
2023/06/21 00:52:05;;;;;;;4.15;2.30;;;;;;;18.80;100.00;100471.69;667867;29;781;-58
2023/06/21 00:52:27;;;;;;;4.38;2.30;;;;;;;18.80;100.00;100472.56;669318;29;1686;-58
2023/06/21 00:52:47;;;;;;;4.80;2.40;;;;;;;18.78;100.00;100468.25;674987;29;1356;-58
2023/06/21 00:53:08;;;;;;;4.40;2.30;;;;;;;18.77;100.00;100470.03;674683;29;1301;-58
2023/06/21 00:53:30;;;;;;;4.00;2.28;;;;;;;18.76;100.00;100470.09;672999;29;1666;-58
2023/06/21 00:53:51;;;;;;;4.22;2.30;;;;;;;18.77;100.00;100466.53;674087;29;969;-58
2023/06/21 00:54:16;;;;;;;4.23;2.53;;;;;;;18.78;100.00;100466.47;674846;29;913;-58
2023/06/21 00:54:37;;;;;;;4.10;2.50;;;;;;;18.70;100.00;100461.47;676597;29;1168;-58
2023/06/21 00:54:58;;;;;;;4.50;2.40;;;;;;;18.66;100.00;100465.22;674159;29;4332;-57
2023/06/21 00:55:19;;;;;;;4.27;2.37;;;;;;;18.65;100.00;100476.72;673456;29;1729;-58
2023/06/21 00:55:42;;;;;;;4.28;2.50;;;;;;;18.65;100.00;100468.78;674170;29;2021;-58
2023/06/21 00:56:03;;;;;;;3.80;2.30;;;;;;;18.63;100.00;100464.47;673909;29;1140;-58
2023/06/21 00:56:23;;;;;;;3.90;2.40;;;;;;;18.60;100.00;100470.75;669853;29;1504;-58
2023/06/21 00:56:45;;;;;;;4.40;2.42;;;;;;;18.61;100.00;100471.59;668852;29;1928;-57
2023/06/21 00:57:06;;;;;;;4.03;2.40;;;;;;;18.62;100.00;100466.25;668903;29;1582;-58
2023/06/21 00:57:27;;;;;;;4.05;2.30;;;;;;;18.61;100.00;100469.81;671043;29;1525;-58
2023/06/21 00:57:47;;;;;;;4.10;2.20;;;;;;;18.59;100.00;100471.66;670710;29;4360;-58
2023/06/21 00:58:11;;;;;;;4.07;2.47;;;;;;;18.58;100.00;100475.25;671568;29;1238;-57
2023/06/21 00:58:33;;;;;;;4.30;2.47;;;;;;;18.57;100.00;100476.16;671889;29;1832;-58
2023/06/21 00:58:56;;;;;;;4.35;2.65;;;;;;;18.55;100.00;100480.66;671690;29;924;-57
2023/06/21 00:59:16;;;;;;;4.63;2.75;;;;;;;18.57;100.00;100477.94;670387;29;2224;-58
2023/06/21 00:59:37;;;;;;;4.40;2.30;;;;;;;18.60;100.00;100488.41;670928;29;1189;-58
2023/06/21 00:59:58;;;;;;;4.40;2.25;;;;;;;18.58;100.00;100483.19;669955;29;1689;-58
2023/06/21 01:00:21;;;;;;;4.83;2.40;;;;;;;18.58;100.00;100491.13;669301;29;1462;-58
2023/06/21 01:00:43;;;;;;;4.75;2.45;;;;;;;18.59;100.00;100494.63;671806;29;4780;-58
2023/06/21 01:01:04;;;;;;;6.72;2.53;;;;;;;18.57;100.00;100488.53;672504;29;1903;-58
2023/06/21 01:01:26;;;;;;;4.38;2.50;;;;;;;18.57;100.00;100492.06;673534;29;1670;-58
2023/06/21 01:01:46;;;;;;;3.90;2.25;;;;;;;18.58;100.00;100491.13;672831;29;1289;-58
2023/06/21 01:02:07;;;;;;;3.58;2.10;;;;;;;18.59;100.00;100495.47;671363;29;1054;-58
2023/06/21 01:02:28;;;;;;;4.30;2.50;;;;;;;18.61;100.00;100492.75;670964;29;1807;-57
2023/06/21 01:02:54;;;;;;;4.32;2.40;;;;;;;18.59;100.00;100498.13;670783;29;1157;-58
2023/06/21 01:03:19;;;;;;;4.65;2.22;;;;;;;18.62;100.00;100495.38;667802;29;1569;-58
2023/06/21 01:03:39;;;;;;;3.88;2.22;;;;;;;18.64;100.00;100488.22;668424;29;2161;-58
2023/06/21 01:04:00;;;;;;;4.13;2.40;;;;;;;18.65;100.00;100495.25;670978;29;4532;-58
2023/06/21 01:04:22;;;;;;;4.03;2.33;;;;;;;18.66;100.00;100496.97;672695;29;1500;-58
2023/06/21 01:04:43;;;;;;;4.40;2.50;;;;;;;18.66;100.00;100493.44;674601;29;869;-58
2023/06/21 01:05:04;;;;;;;4.85;2.50;;;;;;;18.65;100.00;100492.59;674351;29;1248;-58
2023/06/21 01:05:25;;;;;;;4.70;2.65;;;;;;;18.65;100.00;100494.38;673425;29;1577;-58
2023/06/21 01:06:08;;;;;;;4.50;2.47;;;;;;;18.61;100.00;100492.75;674514;29;1227;-58
2023/06/21 01:06:55;;;;;;;4.38;2.50;;;;;;;18.60;100.00;100496.34;674576;29;1496;-58
2023/06/21 01:07:24;;;;;;;3.70;2.20;;;;;;;18.57;100.00;100494.69;674873;29;4815;-58
2023/06/21 01:08:06;;;;;;;3.90;2.10;;;;;;;18.58;100.00;100488.47;678196;29;925;-58
2023/06/21 01:08:29;;;;;;;4.53;2.70;;;;;;;18.58;100.00;100496.44;674838;29;1563;-58
2023/06/21 01:09:15;;;;;;;4.30;2.50;;;;;;;18.61;100.00;100488.34;677016;29;933;-57
2023/06/21 01:09:54;;;;;;;4.03;2.40;;;;;;;18.60;100.00;100497.22;671300;29;1559;-57
2023/06/21 01:10:21;;;;;;;5.80;2.40;;;;;;;18.51;100.00;100498.47;671233;29;4759;-58
2023/06/21 01:10:53;;;;;;;4.30;2.42;;;;;;;18.50;100.00;100502.03;675329;29;1012;-58
2023/06/21 01:11:23;;;;;;;4.07;2.30;;;;;;;18.60;100.00;100501.66;674039;29;981;-58
2023/06/21 01:12:02;;;;;;;5.53;2.60;;;;;;;18.65;100.00;100497.88;679358;29;2118;-58
2023/06/21 01:12:40;;;;;;;4.53;2.38;;;;;;;18.69;100.00;100502.13;678425;29;1581;-58
2023/06/21 01:13:28;;;;;;;4.03;2.30;;;;;;;18.62;100.00;100505.97;676201;29;6284;-58
2023/06/21 01:14:10;;;;;;;3.65;2.25;;;;;;;18.60;100.00;100502.50;677109;29;1584;-58
2023/06/21 01:15:25;;;;;;;4.05;2.40;;;;;;;18.58;100.00;100498.19;672655;29;1372;-58
2023/06/21 01:15:50;;;;;;;4.63;2.38;;;;;;;18.49;100.00;100502.94;670555;29;4555;-58
2023/06/21 01:16:14;;;;;;;4.22;2.17;;;;;;;18.45;100.00;100503.13;670365;29;1325;-58
2023/06/21 01:16:39;;;;;;;5.22;2.38;;;;;;;18.39;100.00;100504.25;672642;29;1412;-58
2023/06/21 01:17:03;;;;;;;4.10;2.35;;;;;;;18.33;100.00;100505.34;674006;29;1113;-57
2023/06/21 01:17:28;;;;;;;4.00;2.38;;;;;;;18.32;100.00;100503.63;673076;29;1557;-58
2023/06/21 01:17:51;;;;;;;3.83;2.10;;;;;;;18.36;100.00;100499.94;675940;29;1126;-58
2023/06/21 01:18:15;;;;;;;3.83;2.20;;;;;;;18.38;100.00;100500.72;673028;29;1506;-58
2023/06/21 01:18:38;;;;;;;3.60;2.30;;;;;;;18.39;100.00;100504.25;672461;29;1136;-58
2023/06/21 01:19:01;;;;;;;4.20;2.33;;;;;;;18.40;100.00;100507.72;677975;29;5380;-58
2023/06/21 01:19:43;;;;;;;4.32;2.47;;;;;;;18.35;100.00;100505.28;675064;29;1483;-58
2023/06/21 01:20:14;;;;;;;5.00;2.80;;;;;;;18.33;100.00;100505.34;676581;29;1254;-58
2023/06/21 01:20:37;;;;;;;4.72;2.30;;;;;;;18.34;100.00;100506.19;676282;29;1125;-58
2023/06/21 01:21:03;;;;;;;4.43;2.33;;;;;;;18.33;100.00;100509.75;675422;29;2001;-58
2023/06/21 01:21:24;;;;;;;4.63;2.55;;;;;;;18.32;100.00;100514.19;675555;29;1229;-58
2023/06/21 01:21:45;;;;;;;4.90;2.40;;;;;;;18.32;100.00;100514.19;676045;29;4372;-58
2023/06/21 01:22:16;;;;;;;4.25;2.35;;;;;;;18.34;100.00;100507.03;669851;29;1669;-58
2023/06/21 01:22:55;;;;;;;4.20;2.40;;;;;;;18.37;100.00;100511.34;672364;29;1332;-58
2023/06/21 01:23:40;;;;;;;4.30;2.42;;;;;;;18.36;100.00;100510.50;673684;29;1551;-58
2023/06/21 01:24:36;;;;;;;4.20;2.50;;;;;;;18.41;100.00;100517.41;674132;29;2209;-58
2023/06/21 01:25:27;;;;;;;4.30;2.35;;;;;;;18.40;100.00;100513.91;674889;29;4370;-58
2023/06/21 01:26:11;;;;;;;4.10;2.30;;;;;;;18.38;100.00;100519.25;675978;29;2206;-58
2023/06/21 01:26:37;;;;;;;4.80;2.40;;;;;;;18.36;100.00;100514.97;676434;29;1507;-58
2023/06/21 01:27:35;;;;;;;4.53;2.33;;;;;;;18.26;100.00;100518.88;674915;29;2161;-58
2023/06/21 01:28:36;;;;;;;4.10;2.58;;;;;;;18.18;100.00;100521.84;676382;29;4455;-58
2023/06/21 01:29:05;;;;;;;3.95;2.33;;;;;;;18.21;100.00;100516.41;676836;29;1104;-58
2023/06/21 01:29:33;;;;;;;4.65;2.50;;;;;;;18.16;100.00;100515.72;672963;29;1481;-58
2023/06/21 01:29:58;;;;;;;4.10;2.60;;;;;;;18.17;100.00;100520.94;674261;29;993;-58
2023/06/21 01:30:20;;;;;;;4.30;2.40;;;;;;;18.20;100.00;100512.03;673254;29;1529;-58
2023/06/21 01:30:41;;;;;;;4.30;2.60;;;;;;;18.20;100.00;100518.19;674167;29;921;-58
2023/06/21 01:31:02;;;;;;;4.00;2.45;;;;;;;18.22;100.00;100510.22;674073;29;4676;-58
2023/06/21 01:31:23;;;;;;;3.80;2.35;;;;;;;18.21;100.00;100511.13;671155;29;1486;-58
2023/06/21 01:31:45;;;;;;;4.72;2.88;;;;;;;18.16;100.00;100513.06;674097;29;1390;-57
2023/06/21 01:32:10;;;;;;;4.38;2.45;;;;;;;18.10;100.00;100513.31;673979;29;910;-58
2023/06/21 01:32:33;;;;;;;3.85;2.30;;;;;;;18.06;100.00;100515.22;667592;29;1703;-58
2023/06/21 01:32:55;;;;;;;3.90;2.38;;;;;;;18.04;100.00;100512.63;667843;29;939;-58
2023/06/21 01:33:18;;;;;;;4.35;2.45;;;;;;;18.07;100.00;100514.31;669012;29;1757;-58
2023/06/21 01:33:39;;;;;;;4.57;2.40;;;;;;;18.10;100.00;100523.91;667747;29;1227;-58
2023/06/21 01:34:03;;;;;;;4.17;2.40;;;;;;;18.11;100.00;100521.19;669572;29;4490;-58
2023/06/21 01:34:24;;;;;;;4.85;2.50;;;;;;;18.12;100.00;100511.47;673787;29;1749;-58
2023/06/21 01:34:45;;;;;;;4.55;2.45;;;;;;;18.09;100.00;100515.09;674230;29;984;-57
2023/06/21 01:35:09;;;;;;;4.45;2.42;;;;;;;18.09;100.00;100519.53;674135;29;861;-58
2023/06/21 01:35:29;;;;;;;5.13;2.50;;;;;;;18.10;100.00;100519.47;673162;29;1598;-58
2023/06/21 01:35:52;;;;;;;3.92;2.20;;;;;;;18.12;100.00;100514.13;668769;29;1381;-58
2023/06/21 01:36:13;;;;;;;4.47;2.42;;;;;;;18.11;100.00;100518.56;669348;29;918;-59
2023/06/21 01:36:33;;;;;;;4.57;2.40;;;;;;;18.13;100.00;100515.84;669469;29;907;-58
2023/06/21 01:36:55;;;;;;;4.90;2.50;;;;;;;18.13;100.00;100518.50;669826;29;5154;-58
2023/06/21 01:37:16;;;;;;;4.32;2.42;;;;;;;18.09;100.00;100514.25;670561;29;1698;-58
2023/06/21 01:37:37;;;;;;;3.97;2.40;;;;;;;18.09;100.00;100515.09;671312;29;1213;-58
2023/06/21 01:37:58;;;;;;;4.40;2.50;;;;;;;18.12;100.00;100516.75;673269;29;858;-58
2023/06/21 01:38:21;;;;;;;4.53;2.42;;;;;;;18.12;100.00;100512.31;670397;29;1566;-58
2023/06/21 01:38:41;;;;;;;4.05;2.30;;;;;;;18.12;100.00;100514.13;670421;29;5293;-58
2023/06/21 01:39:05;;;;;;;4.70;2.60;;;;;;;18.09;100.00;100511.59;666684;29;1488;-58
2023/06/21 01:39:31;;;;;;;4.20;2.50;;;;;;;18.07;100.00;100508.13;666026;29;1522;-58
2023/06/21 01:39:52;;;;;;;4.40;2.70;;;;;;;18.07;100.00;100508.13;669361;29;4436;-58
2023/06/21 01:40:13;;;;;;;4.55;2.60;;;;;;;18.07;100.00;100514.31;672866;29;949;-58
2023/06/21 01:40:37;;;;;;;4.60;2.78;;;;;;;18.07;100.00;100513.41;674750;29;933;-58
2023/06/21 01:40:57;;;;;;;4.85;2.75;;;;;;;18.07;100.00;100510.78;674957;29;2045;-58
2023/06/21 01:41:18;;;;;;;5.07;2.40;;;;;;;18.08;100.00;100505.41;675473;29;1551;-58
2023/06/21 01:41:38;;;;;;;4.25;2.30;;;;;;;18.07;100.00;100514.31;674125;29;1332;-58
2023/06/21 01:41:59;;;;;;;3.83;2.23;;;;;;;18.06;100.00;100509.06;669025;29;859;-57
2023/06/21 01:42:19;;;;;;;4.95;2.50;;;;;;;18.06;100.00;100506.44;665376;29;1492;-58
2023/06/21 01:42:40;;;;;;;5.03;2.40;;;;;;;18.07;100.00;100503.72;668588;29;995;-58
2023/06/21 01:43:00;;;;;;;5.25;2.65;;;;;;;18.08;100.00;100509.84;668613;29;4536;-58
2023/06/21 01:43:21;;;;;;;4.33;2.50;;;;;;;18.07;100.00;100508.13;668202;29;1621;-58
2023/06/21 01:43:41;;;;;;;4.30;2.40;;;;;;;18.08;100.00;100507.22;669778;29;1373;-58
2023/06/21 01:44:09;;;;;;;4.85;2.42;;;;;;;18.09;100.00;100507.16;668874;29;1337;-58
2023/06/21 01:44:29;;;;;;;4.28;2.33;;;;;;;18.09;100.00;100501.00;667955;29;1641;-58
2023/06/21 01:44:50;;;;;;;4.03;2.40;;;;;;;18.10;100.00;100505.38;666367;29;1351;-58
2023/06/21 01:45:11;;;;;;;4.10;2.40;;;;;;;18.10;100.00;100508.88;668952;29;777;-58
2023/06/21 01:45:34;;;;;;;4.68;2.78;;;;;;;18.10;100.00;100514.19;668526;29;1008;-58
2023/06/21 01:45:54;;;;;;;4.68;2.78;;;;;;;18.11;100.00;100509.72;670484;29;4614;-58
2023/06/21 01:46:20;;;;;;;4.40;2.70;;;;;;;18.10;100.00;100502.75;670070;29;1539;-58
2023/06/21 01:46:42;;;;;;;4.53;2.42;;;;;;;18.07;100.00;100508.13;670742;29;978;-58
2023/06/21 01:47:04;;;;;;;4.85;2.50;;;;;;;18.06;100.00;100511.72;672068;29;814;-58
2023/06/21 01:47:24;;;;;;;5.65;2.67;;;;;;;18.04;100.00;100504.69;669065;29;1573;-58
2023/06/21 01:47:45;;;;;;;5.43;2.60;;;;;;;18.03;100.00;100507.41;670499;29;1495;-58
2023/06/21 01:48:09;;;;;;;4.70;2.67;;;;;;;18.03;100.00;100512.69;673322;29;962;-58
2023/06/21 01:48:33;;;;;;;4.90;2.70;;;;;;;18.01;100.00;100510.09;673485;29;1453;-58
2023/06/21 01:48:55;;;;;;;4.45;2.60;;;;;;;17.96;100.00;100509.41;671685;29;4560;-58
2023/06/21 01:49:16;;;;;;;4.53;2.60;;;;;;;17.94;100.00;100510.38;670545;29;1325;-58
2023/06/21 01:49:37;;;;;;;5.45;2.50;;;;;;;17.95;100.00;100504.19;666157;29;902;-58
2023/06/21 01:49:58;;;;;;;4.47;2.40;;;;;;;17.99;100.00;100513.72;665162;29;843;-58
2023/06/21 01:50:21;;;;;;;4.57;2.50;;;;;;;18.00;100.00;100512.81;665516;29;1467;-58
2023/06/21 01:50:44;;;;;;;4.32;2.65;;;;;;;18.01;100.00;100517.16;665328;29;1302;-57